sensor_id;sensor_type;location;lat;lon;timestamp;P1;durP1;ratioP1;P2;durP2;ratioP2
48835;SDS011;62581;47.342;7.908;2023-10-31T00:02:18;4.43;;;3.30;;
48835;SDS011;62581;47.342;7.908;2023-10-31T00:04:47;4.30;;;3.15;;
48835;SDS011;62581;47.342;7.908;2023-10-31T00:07:14;4.03;;;3.20;;
48835;SDS011;62581;47.342;7.908;2023-10-31T00:09:41;3.97;;;3.35;;
48835;SDS011;62581;47.342;7.908;2023-10-31T00:12:08;4.00;;;3.60;;
48835;SDS011;62581;47.342;7.908;2023-10-31T00:14:35;5.85;;;3.28;;
48835;SDS011;62581;47.342;7.908;2023-10-31T00:17:02;4.20;;;3.65;;
48835;SDS011;62581;47.342;7.908;2023-10-31T00:19:29;5.88;;;3.80;;
48835;SDS011;62581;47.342;7.908;2023-10-31T00:21:57;4.90;;;3.40;;
48835;SDS011;62581;47.342;7.908;2023-10-31T00:24:24;6.90;;;3.63;;
48835;SDS011;62581;47.342;7.908;2023-10-31T00:26:51;5.78;;;3.75;;
48835;SDS011;62581;47.342;7.908;2023-10-31T00:29:18;5.03;;;3.65;;
48835;SDS011;62581;47.342;7.908;2023-10-31T00:31:45;6.45;;;4.43;;
48835;SDS011;62581;47.342;7.908;2023-10-31T00:34:12;4.70;;;4.18;;
48835;SDS011;62581;47.342;7.908;2023-10-31T00:36:39;6.85;;;3.90;;
48835;SDS011;62581;47.342;7.908;2023-10-31T00:39:07;4.88;;;3.88;;
48835;SDS011;62581;47.342;7.908;2023-10-31T00:41:34;6.28;;;4.13;;
48835;SDS011;62581;47.342;7.908;2023-10-31T00:44:01;4.07;;;3.53;;
48835;SDS011;62581;47.342;7.908;2023-10-31T00:46:28;5.28;;;4.00;;
48835;SDS011;62581;47.342;7.908;2023-10-31T00:48:55;7.22;;;3.47;;
48835;SDS011;62581;47.342;7.908;2023-10-31T00:51:22;5.47;;;4.00;;
48835;SDS011;62581;47.342;7.908;2023-10-31T00:53:49;5.43;;;4.30;;
48835;SDS011;62581;47.342;7.908;2023-10-31T00:56:18;6.97;;;5.38;;
48835;SDS011;62581;47.342;7.908;2023-10-31T00:58:45;5.22;;;4.32;;
48835;SDS011;62581;47.342;7.908;2023-10-31T01:01:12;5.15;;;4.22;;
48835;SDS011;62581;47.342;7.908;2023-10-31T01:03:39;5.63;;;4.25;;
48835;SDS011;62581;47.342;7.908;2023-10-31T01:06:06;5.60;;;3.70;;
48835;SDS011;62581;47.342;7.908;2023-10-31T01:08:34;3.55;;;3.25;;
48835;SDS011;62581;47.342;7.908;2023-10-31T01:11:01;6.78;;;3.53;;
48835;SDS011;62581;47.342;7.908;2023-10-31T01:13:29;4.88;;;3.40;;
48835;SDS011;62581;47.342;7.908;2023-10-31T01:15:56;3.65;;;3.35;;
48835;SDS011;62581;47.342;7.908;2023-10-31T01:18:23;3.53;;;3.22;;
48835;SDS011;62581;47.342;7.908;2023-10-31T01:20:51;6.85;;;2.70;;
48835;SDS011;62581;47.342;7.908;2023-10-31T01:23:18;4.00;;;2.72;;
48835;SDS011;62581;47.342;7.908;2023-10-31T01:25:45;4.15;;;2.95;;
48835;SDS011;62581;47.342;7.908;2023-10-31T01:28:12;3.47;;;2.33;;
48835;SDS011;62581;47.342;7.908;2023-10-31T01:30:40;3.13;;;2.83;;
48835;SDS011;62581;47.342;7.908;2023-10-31T01:33:07;2.85;;;2.63;;
48835;SDS011;62581;47.342;7.908;2023-10-31T01:35:34;3.38;;;2.55;;
48835;SDS011;62581;47.342;7.908;2023-10-31T01:38:01;3.53;;;2.50;;
48835;SDS011;62581;47.342;7.908;2023-10-31T01:40:28;4.30;;;2.83;;
48835;SDS011;62581;47.342;7.908;2023-10-31T01:42:55;2.83;;;2.50;;
48835;SDS011;62581;47.342;7.908;2023-10-31T01:45:22;3.08;;;2.22;;
48835;SDS011;62581;47.342;7.908;2023-10-31T01:47:50;3.58;;;1.63;;
48835;SDS011;62581;47.342;7.908;2023-10-31T01:50:17;5.40;;;2.40;;
48835;SDS011;62581;47.342;7.908;2023-10-31T01:52:45;2.30;;;1.45;;
48835;SDS011;62581;47.342;7.908;2023-10-31T01:55:12;4.85;;;2.05;;
48835;SDS011;62581;47.342;7.908;2023-10-31T01:57:40;3.90;;;1.85;;
48835;SDS011;62581;47.342;7.908;2023-10-31T02:00:10;4.05;;;1.95;;
48835;SDS011;62581;47.342;7.908;2023-10-31T02:02:39;3.47;;;2.25;;
48835;SDS011;62581;47.342;7.908;2023-10-31T02:05:09;4.38;;;2.75;;
48835;SDS011;62581;47.342;7.908;2023-10-31T02:07:36;5.32;;;2.22;;
48835;SDS011;62581;47.342;7.908;2023-10-31T02:10:03;3.85;;;2.72;;
48835;SDS011;62581;47.342;7.908;2023-10-31T02:12:30;4.53;;;2.65;;
48835;SDS011;62581;47.342;7.908;2023-10-31T02:14:58;4.43;;;2.83;;
48835;SDS011;62581;47.342;7.908;2023-10-31T02:17:25;3.35;;;2.83;;
48835;SDS011;62581;47.342;7.908;2023-10-31T02:19:52;5.18;;;1.98;;
48835;SDS011;62581;47.342;7.908;2023-10-31T02:22:21;3.72;;;1.55;;
48835;SDS011;62581;47.342;7.908;2023-10-31T02:24:48;5.43;;;2.08;;
48835;SDS011;62581;47.342;7.908;2023-10-31T02:27:15;3.38;;;1.30;;
48835;SDS011;62581;47.342;7.908;2023-10-31T02:29:42;1.60;;;1.23;;
48835;SDS011;62581;47.342;7.908;2023-10-31T02:32:09;3.38;;;1.52;;
48835;SDS011;62581;47.342;7.908;2023-10-31T02:34:36;5.28;;;1.60;;
48835;SDS011;62581;47.342;7.908;2023-10-31T02:37:03;1.67;;;1.20;;
48835;SDS011;62581;47.342;7.908;2023-10-31T02:39:31;1.63;;;1.27;;
48835;SDS011;62581;47.342;7.908;2023-10-31T02:41:58;3.83;;;1.40;;
48835;SDS011;62581;47.342;7.908;2023-10-31T02:44:26;3.08;;;1.20;;
48835;SDS011;62581;47.342;7.908;2023-10-31T02:46:53;3.22;;;1.40;;
48835;SDS011;62581;47.342;7.908;2023-10-31T02:49:20;2.75;;;1.40;;
48835;SDS011;62581;47.342;7.908;2023-10-31T02:51:47;3.30;;;1.40;;
48835;SDS011;62581;47.342;7.908;2023-10-31T02:54:14;1.55;;;1.30;;
48835;SDS011;62581;47.342;7.908;2023-10-31T02:56:43;3.72;;;1.50;;
48835;SDS011;62581;47.342;7.908;2023-10-31T02:59:10;2.80;;;1.83;;
48835;SDS011;62581;47.342;7.908;2023-10-31T03:01:37;3.88;;;1.30;;
48835;SDS011;62581;47.342;7.908;2023-10-31T03:04:05;2.60;;;1.50;;
48835;SDS011;62581;47.342;7.908;2023-10-31T03:06:31;2.75;;;1.70;;
48835;SDS011;62581;47.342;7.908;2023-10-31T03:08:58;2.65;;;1.67;;
48835;SDS011;62581;47.342;7.908;2023-10-31T03:11:26;5.03;;;1.67;;
48835;SDS011;62581;47.342;7.908;2023-10-31T03:13:54;3.78;;;1.70;;
48835;SDS011;62581;47.342;7.908;2023-10-31T03:16:22;3.03;;;1.90;;
48835;SDS011;62581;47.342;7.908;2023-10-31T03:18:49;2.78;;;1.67;;
48835;SDS011;62581;47.342;7.908;2023-10-31T03:21:16;2.97;;;1.90;;
48835;SDS011;62581;47.342;7.908;2023-10-31T03:23:46;4.68;;;2.03;;
48835;SDS011;62581;47.342;7.908;2023-10-31T03:26:14;4.18;;;1.90;;
48835;SDS011;62581;47.342;7.908;2023-10-31T03:28:42;5.13;;;1.95;;
48835;SDS011;62581;47.342;7.908;2023-10-31T03:31:10;3.30;;;1.80;;
48835;SDS011;62581;47.342;7.908;2023-10-31T03:33:38;1.77;;;1.10;;
48835;SDS011;62581;47.342;7.908;2023-10-31T03:36:05;5.88;;;1.42;;
48835;SDS011;62581;47.342;7.908;2023-10-31T03:38:33;5.83;;;1.30;;
48835;SDS011;62581;47.342;7.908;2023-10-31T03:41:00;4.50;;;1.58;;
48835;SDS011;62581;47.342;7.908;2023-10-31T03:43:27;5.90;;;1.00;;
48835;SDS011;62581;47.342;7.908;2023-10-31T03:45:54;1.27;;;0.90;;
48835;SDS011;62581;47.342;7.908;2023-10-31T03:48:23;8.02;;;1.20;;
48835;SDS011;62581;47.342;7.908;2023-10-31T03:50:50;2.38;;;1.05;;
48835;SDS011;62581;47.342;7.908;2023-10-31T03:53:17;2.25;;;1.10;;
48835;SDS011;62581;47.342;7.908;2023-10-31T03:55:44;3.58;;;1.65;;
48835;SDS011;62581;47.342;7.908;2023-10-31T03:58:11;2.63;;;1.80;;
48835;SDS011;62581;47.342;7.908;2023-10-31T04:00:38;3.45;;;1.90;;
48835;SDS011;62581;47.342;7.908;2023-10-31T04:03:06;2.92;;;1.77;;
48835;SDS011;62581;47.342;7.908;2023-10-31T04:05:34;4.57;;;1.60;;
48835;SDS011;62581;47.342;7.908;2023-10-31T04:08:02;3.63;;;1.40;;
48835;SDS011;62581;47.342;7.908;2023-10-31T04:10:29;4.43;;;1.70;;
48835;SDS011;62581;47.342;7.908;2023-10-31T04:12:56;5.38;;;1.67;;
48835;SDS011;62581;47.342;7.908;2023-10-31T04:15:23;4.60;;;1.55;;
48835;SDS011;62581;47.342;7.908;2023-10-31T04:17:50;5.28;;;1.63;;
48835;SDS011;62581;47.342;7.908;2023-10-31T04:20:17;3.92;;;1.58;;
48835;SDS011;62581;47.342;7.908;2023-10-31T04:22:46;2.17;;;1.30;;
48835;SDS011;62581;47.342;7.908;2023-10-31T04:25:13;2.30;;;1.45;;
48835;SDS011;62581;47.342;7.908;2023-10-31T04:27:40;4.40;;;1.50;;
48835;SDS011;62581;47.342;7.908;2023-10-31T04:30:07;6.18;;;1.70;;
48835;SDS011;62581;47.342;7.908;2023-10-31T04:32:34;2.95;;;1.25;;
48835;SDS011;62581;47.342;7.908;2023-10-31T04:35:01;4.13;;;1.23;;
48835;SDS011;62581;47.342;7.908;2023-10-31T04:37:28;2.95;;;1.02;;
48835;SDS011;62581;47.342;7.908;2023-10-31T04:39:57;2.90;;;1.00;;
48835;SDS011;62581;47.342;7.908;2023-10-31T04:42:24;2.58;;;1.00;;
48835;SDS011;62581;47.342;7.908;2023-10-31T04:44:51;2.47;;;1.10;;
48835;SDS011;62581;47.342;7.908;2023-10-31T04:47:18;5.20;;;1.00;;
48835;SDS011;62581;47.342;7.908;2023-10-31T04:49:45;2.80;;;1.08;;
48835;SDS011;62581;47.342;7.908;2023-10-31T04:52:12;2.50;;;1.15;;
48835;SDS011;62581;47.342;7.908;2023-10-31T04:54:39;3.90;;;1.10;;
48835;SDS011;62581;47.342;7.908;2023-10-31T04:57:08;1.33;;;0.90;;
48835;SDS011;62581;47.342;7.908;2023-10-31T04:59:34;5.13;;;1.30;;
48835;SDS011;62581;47.342;7.908;2023-10-31T05:02:03;1.93;;;1.00;;
48835;SDS011;62581;47.342;7.908;2023-10-31T05:04:29;7.03;;;1.27;;
48835;SDS011;62581;47.342;7.908;2023-10-31T05:06:56;8.07;;;1.70;;
48835;SDS011;62581;47.342;7.908;2023-10-31T05:09:23;4.18;;;1.00;;
48835;SDS011;62581;47.342;7.908;2023-10-31T05:11:50;2.05;;;1.25;;
48835;SDS011;62581;47.342;7.908;2023-10-31T05:14:19;6.57;;;1.30;;
48835;SDS011;62581;47.342;7.908;2023-10-31T05:16:45;3.28;;;1.27;;
48835;SDS011;62581;47.342;7.908;2023-10-31T05:19:12;3.05;;;1.30;;
48835;SDS011;62581;47.342;7.908;2023-10-31T05:21:39;2.85;;;1.00;;
48835;SDS011;62581;47.342;7.908;2023-10-31T05:24:07;2.13;;;0.90;;
48835;SDS011;62581;47.342;7.908;2023-10-31T05:26:34;4.15;;;1.35;;
48835;SDS011;62581;47.342;7.908;2023-10-31T05:29:01;2.85;;;1.02;;
48835;SDS011;62581;47.342;7.908;2023-10-31T05:31:29;3.92;;;1.20;;
48835;SDS011;62581;47.342;7.908;2023-10-31T05:33:56;3.25;;;1.05;;
48835;SDS011;62581;47.342;7.908;2023-10-31T05:36:23;4.80;;;1.30;;
48835;SDS011;62581;47.342;7.908;2023-10-31T05:38:53;1.48;;;1.20;;
48835;SDS011;62581;47.342;7.908;2023-10-31T05:41:20;3.97;;;1.23;;
48835;SDS011;62581;47.342;7.908;2023-10-31T05:43:47;6.72;;;1.40;;
48835;SDS011;62581;47.342;7.908;2023-10-31T05:46:14;3.70;;;1.10;;
48835;SDS011;62581;47.342;7.908;2023-10-31T05:48:43;3.03;;;1.20;;
48835;SDS011;62581;47.342;7.908;2023-10-31T05:51:11;3.08;;;1.48;;
48835;SDS011;62581;47.342;7.908;2023-10-31T05:53:39;6.18;;;1.88;;
48835;SDS011;62581;47.342;7.908;2023-10-31T05:56:09;6.28;;;1.80;;
48835;SDS011;62581;47.342;7.908;2023-10-31T05:58:37;5.53;;;1.80;;
48835;SDS011;62581;47.342;7.908;2023-10-31T06:01:04;4.43;;;1.30;;
48835;SDS011;62581;47.342;7.908;2023-10-31T06:03:32;6.13;;;1.50;;
48835;SDS011;62581;47.342;7.908;2023-10-31T06:06:00;3.85;;;1.70;;
48835;SDS011;62581;47.342;7.908;2023-10-31T06:08:27;4.32;;;1.77;;
48835;SDS011;62581;47.342;7.908;2023-10-31T06:10:54;5.88;;;1.75;;
48835;SDS011;62581;47.342;7.908;2023-10-31T06:13:22;4.93;;;2.00;;
48835;SDS011;62581;47.342;7.908;2023-10-31T06:18:17;9.40;;;1.90;;
48835;SDS011;62581;47.342;7.908;2023-10-31T06:20:44;4.50;;;2.00;;
48835;SDS011;62581;47.342;7.908;2023-10-31T06:23:13;7.20;;;2.05;;
48835;SDS011;62581;47.342;7.908;2023-10-31T06:25:40;4.47;;;2.25;;
48835;SDS011;62581;47.342;7.908;2023-10-31T06:28:07;5.53;;;2.13;;
48835;SDS011;62581;47.342;7.908;2023-10-31T06:30:34;7.82;;;2.92;;
48835;SDS011;62581;47.342;7.908;2023-10-31T06:33:01;5.47;;;2.35;;
48835;SDS011;62581;47.342;7.908;2023-10-31T06:35:28;7.50;;;2.60;;
48835;SDS011;62581;47.342;7.908;2023-10-31T06:37:55;5.07;;;2.55;;
48835;SDS011;62581;47.342;7.908;2023-10-31T06:40:25;12.00;;;2.92;;
48835;SDS011;62581;47.342;7.908;2023-10-31T06:42:52;8.25;;;3.03;;
48835;SDS011;62581;47.342;7.908;2023-10-31T06:45:19;6.30;;;2.28;;
48835;SDS011;62581;47.342;7.908;2023-10-31T06:47:47;9.20;;;2.63;;
48835;SDS011;62581;47.342;7.908;2023-10-31T06:50:14;4.45;;;2.40;;
48835;SDS011;62581;47.342;7.908;2023-10-31T06:52:41;4.88;;;2.13;;
48835;SDS011;62581;47.342;7.908;2023-10-31T06:55:08;7.03;;;2.30;;
48835;SDS011;62581;47.342;7.908;2023-10-31T06:57:36;4.53;;;1.90;;
48835;SDS011;62581;47.342;7.908;2023-10-31T07:00:04;12.55;;;3.60;;
48835;SDS011;62581;47.342;7.908;2023-10-31T07:02:34;7.13;;;2.72;;
48835;SDS011;62581;47.342;7.908;2023-10-31T07:05:01;2.97;;;1.83;;
48835;SDS011;62581;47.342;7.908;2023-10-31T07:07:29;4.67;;;2.20;;
48835;SDS011;62581;47.342;7.908;2023-10-31T07:09:56;6.35;;;2.50;;
48835;SDS011;62581;47.342;7.908;2023-10-31T07:12:23;5.45;;;2.47;;
48835;SDS011;62581;47.342;7.908;2023-10-31T07:14:51;8.40;;;2.72;;
48835;SDS011;62581;47.342;7.908;2023-10-31T07:17:18;8.70;;;2.47;;
48835;SDS011;62581;47.342;7.908;2023-10-31T07:19:45;5.43;;;2.50;;
48835;SDS011;62581;47.342;7.908;2023-10-31T07:22:12;4.43;;;2.10;;
48835;SDS011;62581;47.342;7.908;2023-10-31T07:24:40;4.53;;;2.05;;
48835;SDS011;62581;47.342;7.908;2023-10-31T07:27:07;3.45;;;2.22;;
48835;SDS011;62581;47.342;7.908;2023-10-31T07:29:34;5.30;;;2.50;;
48835;SDS011;62581;47.342;7.908;2023-10-31T07:32:06;4.32;;;2.35;;
48835;SDS011;62581;47.342;7.908;2023-10-31T07:34:33;6.45;;;2.72;;
48835;SDS011;62581;47.342;7.908;2023-10-31T07:37:00;3.10;;;2.38;;
48835;SDS011;62581;47.342;7.908;2023-10-31T07:39:28;4.15;;;2.10;;
48835;SDS011;62581;47.342;7.908;2023-10-31T07:41:55;7.93;;;2.35;;
48835;SDS011;62581;47.342;7.908;2023-10-31T07:44:21;5.13;;;2.03;;
48835;SDS011;62581;47.342;7.908;2023-10-31T07:46:48;10.15;;;2.28;;
48835;SDS011;62581;47.342;7.908;2023-10-31T07:49:17;3.40;;;2.20;;
48835;SDS011;62581;47.342;7.908;2023-10-31T07:51:44;6.85;;;2.65;;
48835;SDS011;62581;47.342;7.908;2023-10-31T07:54:13;7.63;;;2.25;;
48835;SDS011;62581;47.342;7.908;2023-10-31T07:56:41;4.25;;;1.90;;
48835;SDS011;62581;47.342;7.908;2023-10-31T07:59:08;3.88;;;1.95;;
48835;SDS011;62581;47.342;7.908;2023-10-31T08:01:36;6.57;;;2.40;;
48835;SDS011;62581;47.342;7.908;2023-10-31T08:04:03;9.38;;;2.83;;
48835;SDS011;62581;47.342;7.908;2023-10-31T08:06:32;7.50;;;2.25;;
48835;SDS011;62581;47.342;7.908;2023-10-31T08:08:59;6.00;;;1.80;;
48835;SDS011;62581;47.342;7.908;2023-10-31T08:11:26;5.85;;;2.13;;
48835;SDS011;62581;47.342;7.908;2023-10-31T08:13:53;6.22;;;2.97;;
48835;SDS011;62581;47.342;7.908;2023-10-31T08:16:20;4.30;;;1.65;;
48835;SDS011;62581;47.342;7.908;2023-10-31T08:18:48;4.40;;;1.98;;
48835;SDS011;62581;47.342;7.908;2023-10-31T08:21:15;4.63;;;2.30;;
48835;SDS011;62581;47.342;7.908;2023-10-31T08:23:43;3.00;;;1.60;;
48835;SDS011;62581;47.342;7.908;2023-10-31T08:26:11;3.65;;;1.90;;
48835;SDS011;62581;47.342;7.908;2023-10-31T08:28:38;7.50;;;1.90;;
48835;SDS011;62581;47.342;7.908;2023-10-31T08:31:05;6.05;;;1.48;;
48835;SDS011;62581;47.342;7.908;2023-10-31T08:33:32;5.35;;;1.90;;
48835;SDS011;62581;47.342;7.908;2023-10-31T08:35:59;3.72;;;1.67;;
48835;SDS011;62581;47.342;7.908;2023-10-31T08:38:27;6.43;;;1.90;;
48835;SDS011;62581;47.342;7.908;2023-10-31T08:40:56;3.95;;;1.52;;
48835;SDS011;62581;47.342;7.908;2023-10-31T08:43:24;5.93;;;2.17;;
48835;SDS011;62581;47.342;7.908;2023-10-31T08:45:51;5.68;;;1.77;;
48835;SDS011;62581;47.342;7.908;2023-10-31T08:48:18;2.55;;;1.75;;
48835;SDS011;62581;47.342;7.908;2023-10-31T08:50:45;7.70;;;1.92;;
48835;SDS011;62581;47.342;7.908;2023-10-31T08:53:12;4.50;;;1.77;;
48835;SDS011;62581;47.342;7.908;2023-10-31T08:55:39;5.63;;;2.00;;
48835;SDS011;62581;47.342;7.908;2023-10-31T08:58:10;5.80;;;2.05;;
48835;SDS011;62581;47.342;7.908;2023-10-31T09:00:38;8.05;;;2.20;;
48835;SDS011;62581;47.342;7.908;2023-10-31T09:03:05;7.15;;;2.47;;
48835;SDS011;62581;47.342;7.908;2023-10-31T09:05:33;3.58;;;2.20;;
48835;SDS011;62581;47.342;7.908;2023-10-31T09:08:00;3.42;;;2.08;;
48835;SDS011;62581;47.342;7.908;2023-10-31T09:10:27;4.28;;;2.05;;
48835;SDS011;62581;47.342;7.908;2023-10-31T09:12:54;2.53;;;1.70;;
48835;SDS011;62581;47.342;7.908;2023-10-31T09:15:22;5.28;;;1.90;;
48835;SDS011;62581;47.342;7.908;2023-10-31T09:17:49;4.97;;;1.92;;
48835;SDS011;62581;47.342;7.908;2023-10-31T09:20:16;5.15;;;2.13;;
48835;SDS011;62581;47.342;7.908;2023-10-31T09:22:43;4.95;;;1.90;;
48835;SDS011;62581;47.342;7.908;2023-10-31T09:25:10;3.00;;;1.67;;
48835;SDS011;62581;47.342;7.908;2023-10-31T09:27:37;6.32;;;2.40;;
48835;SDS011;62581;47.342;7.908;2023-10-31T09:30:05;5.45;;;1.80;;
48835;SDS011;62581;47.342;7.908;2023-10-31T09:32:34;4.82;;;1.85;;
48835;SDS011;62581;47.342;7.908;2023-10-31T09:35:01;4.32;;;1.92;;
48835;SDS011;62581;47.342;7.908;2023-10-31T09:37:29;4.55;;;1.90;;
48835;SDS011;62581;47.342;7.908;2023-10-31T09:39:56;3.63;;;1.55;;
48835;SDS011;62581;47.342;7.908;2023-10-31T09:42:22;4.05;;;2.00;;
48835;SDS011;62581;47.342;7.908;2023-10-31T09:44:50;7.80;;;2.05;;
48835;SDS011;62581;47.342;7.908;2023-10-31T09:47:17;3.05;;;1.70;;
48835;SDS011;62581;47.342;7.908;2023-10-31T09:49:47;8.27;;;1.77;;
48835;SDS011;62581;47.342;7.908;2023-10-31T09:52:14;5.22;;;1.55;;
48835;SDS011;62581;47.342;7.908;2023-10-31T09:54:41;5.18;;;1.67;;
48835;SDS011;62581;47.342;7.908;2023-10-31T09:57:08;4.90;;;1.67;;
48835;SDS011;62581;47.342;7.908;2023-10-31T09:59:36;9.35;;;1.90;;
48835;SDS011;62581;47.342;7.908;2023-10-31T10:02:03;3.80;;;1.48;;
48835;SDS011;62581;47.342;7.908;2023-10-31T10:04:30;8.52;;;1.75;;
48835;SDS011;62581;47.342;7.908;2023-10-31T10:07:00;4.22;;;1.60;;
48835;SDS011;62581;47.342;7.908;2023-10-31T10:09:27;3.20;;;1.17;;
48835;SDS011;62581;47.342;7.908;2023-10-31T10:11:56;3.38;;;1.65;;
48835;SDS011;62581;47.342;7.908;2023-10-31T10:14:23;4.53;;;1.95;;
48835;SDS011;62581;47.342;7.908;2023-10-31T10:16:51;3.45;;;1.42;;
48835;SDS011;62581;47.342;7.908;2023-10-31T10:19:19;2.78;;;1.20;;
48835;SDS011;62581;47.342;7.908;2023-10-31T10:21:49;4.00;;;0.90;;
48835;SDS011;62581;47.342;7.908;2023-10-31T10:24:19;5.20;;;1.40;;
48835;SDS011;62581;47.342;7.908;2023-10-31T10:26:47;3.55;;;1.10;;
48835;SDS011;62581;47.342;7.908;2023-10-31T10:29:14;4.50;;;1.50;;
48835;SDS011;62581;47.342;7.908;2023-10-31T10:31:42;3.42;;;1.50;;
48835;SDS011;62581;47.342;7.908;2023-10-31T10:34:09;2.72;;;1.48;;
48835;SDS011;62581;47.342;7.908;2023-10-31T10:36:37;1.50;;;1.30;;
48835;SDS011;62581;47.342;7.908;2023-10-31T10:39:05;2.90;;;1.10;;
48835;SDS011;62581;47.342;7.908;2023-10-31T10:41:35;3.20;;;0.98;;
48835;SDS011;62581;47.342;7.908;2023-10-31T10:44:07;5.15;;;1.10;;
48835;SDS011;62581;47.342;7.908;2023-10-31T10:46:36;2.53;;;1.17;;
48835;SDS011;62581;47.342;7.908;2023-10-31T10:49:06;3.05;;;1.40;;
48835;SDS011;62581;47.342;7.908;2023-10-31T10:51:37;2.30;;;0.93;;
48835;SDS011;62581;47.342;7.908;2023-10-31T10:54:18;1.45;;;0.90;;
48835;SDS011;62581;47.342;7.908;2023-10-31T10:56:54;1.92;;;1.00;;
48835;SDS011;62581;47.342;7.908;2023-10-31T10:59:26;3.78;;;1.48;;
48835;SDS011;62581;47.342;7.908;2023-10-31T11:02:02;4.83;;;1.10;;
48835;SDS011;62581;47.342;7.908;2023-10-31T11:04:32;2.38;;;1.02;;
48835;SDS011;62581;47.342;7.908;2023-10-31T11:07:01;2.40;;;1.00;;
48835;SDS011;62581;47.342;7.908;2023-10-31T11:09:28;1.87;;;1.00;;
48835;SDS011;62581;47.342;7.908;2023-10-31T11:14:25;2.03;;;0.80;;
48835;SDS011;62581;47.342;7.908;2023-10-31T11:16:54;2.10;;;0.90;;
48835;SDS011;62581;47.342;7.908;2023-10-31T11:19:24;2.88;;;0.95;;
48835;SDS011;62581;47.342;7.908;2023-10-31T11:24:21;1.80;;;0.95;;
48835;SDS011;62581;47.342;7.908;2023-10-31T11:26:52;1.25;;;0.82;;
48835;SDS011;62581;47.342;7.908;2023-10-31T11:29:25;2.58;;;0.88;;
48835;SDS011;62581;47.342;7.908;2023-10-31T11:31:53;5.38;;;0.82;;
48835;SDS011;62581;47.342;7.908;2023-10-31T11:34:22;2.42;;;0.85;;
48835;SDS011;62581;47.342;7.908;2023-10-31T11:36:50;1.75;;;0.85;;
48835;SDS011;62581;47.342;7.908;2023-10-31T11:39:18;1.70;;;0.88;;
48835;SDS011;62581;47.342;7.908;2023-10-31T11:41:51;0.88;;;0.57;;
48835;SDS011;62581;47.342;7.908;2023-10-31T11:44:22;1.58;;;0.70;;
48835;SDS011;62581;47.342;7.908;2023-10-31T11:46:52;2.58;;;0.68;;
48835;SDS011;62581;47.342;7.908;2023-10-31T11:49:32;1.73;;;0.60;;
48835;SDS011;62581;47.342;7.908;2023-10-31T11:52:16;0.77;;;0.50;;
48835;SDS011;62581;47.342;7.908;2023-10-31T11:54:43;0.80;;;0.50;;
48835;SDS011;62581;47.342;7.908;2023-10-31T11:57:11;1.55;;;0.60;;
48835;SDS011;62581;47.342;7.908;2023-10-31T11:59:53;0.40;;;0.40;;
48835;SDS011;62581;47.342;7.908;2023-10-31T12:02:20;5.82;;;0.90;;
48835;SDS011;62581;47.342;7.908;2023-10-31T12:04:47;1.55;;;0.65;;
48835;SDS011;62581;47.342;7.908;2023-10-31T12:07:14;1.63;;;0.60;;
48835;SDS011;62581;47.342;7.908;2023-10-31T12:09:47;0.52;;;0.40;;
48835;SDS011;62581;47.342;7.908;2023-10-31T12:12:15;0.77;;;0.45;;
48835;SDS011;62581;47.342;7.908;2023-10-31T12:14:42;0.57;;;0.45;;
48835;SDS011;62581;47.342;7.908;2023-10-31T12:17:10;0.88;;;0.40;;
48835;SDS011;62581;47.342;7.908;2023-10-31T12:19:37;1.48;;;0.40;;
48835;SDS011;62581;47.342;7.908;2023-10-31T12:22:12;2.97;;;0.40;;
48835;SDS011;62581;47.342;7.908;2023-10-31T12:24:39;0.50;;;0.40;;
48835;SDS011;62581;47.342;7.908;2023-10-31T12:27:06;3.08;;;0.70;;
48835;SDS011;62581;47.342;7.908;2023-10-31T12:29:33;0.63;;;0.40;;
48835;SDS011;62581;47.342;7.908;2023-10-31T12:32:00;1.17;;;0.60;;
48835;SDS011;62581;47.342;7.908;2023-10-31T12:34:30;0.90;;;0.70;;
48835;SDS011;62581;47.342;7.908;2023-10-31T12:36:59;1.45;;;0.40;;
48835;SDS011;62581;47.342;7.908;2023-10-31T12:39:28;1.80;;;0.47;;
48835;SDS011;62581;47.342;7.908;2023-10-31T12:41:56;0.32;;;0.32;;
48835;SDS011;62581;47.342;7.908;2023-10-31T12:44:24;1.70;;;0.45;;
48835;SDS011;62581;47.342;7.908;2023-10-31T12:46:53;2.47;;;0.50;;
48835;SDS011;62581;47.342;7.908;2023-10-31T12:49:20;0.50;;;0.40;;
48835;SDS011;62581;47.342;7.908;2023-10-31T12:51:56;0.75;;;0.63;;
48835;SDS011;62581;47.342;7.908;2023-10-31T12:54:27;0.30;;;0.30;;
48835;SDS011;62581;47.342;7.908;2023-10-31T12:56:58;0.57;;;0.50;;
48835;SDS011;62581;47.342;7.908;2023-10-31T12:59:25;0.95;;;0.60;;
48835;SDS011;62581;47.342;7.908;2023-10-31T13:01:53;1.52;;;0.57;;
48835;SDS011;62581;47.342;7.908;2023-10-31T13:04:24;1.52;;;0.50;;
48835;SDS011;62581;47.342;7.908;2023-10-31T13:06:57;2.17;;;0.60;;
48835;SDS011;62581;47.342;7.908;2023-10-31T13:09:27;0.55;;;0.43;;
48835;SDS011;62581;47.342;7.908;2023-10-31T13:11:57;1.02;;;0.45;;
48835;SDS011;62581;47.342;7.908;2023-10-31T13:14:25;1.83;;;0.60;;
48835;SDS011;62581;47.342;7.908;2023-10-31T13:16:52;0.43;;;0.40;;
48835;SDS011;62581;47.342;7.908;2023-10-31T13:19:19;1.40;;;0.43;;
48835;SDS011;62581;47.342;7.908;2023-10-31T13:21:47;1.25;;;0.40;;
48835;SDS011;62581;47.342;7.908;2023-10-31T13:24:15;0.85;;;0.60;;
48835;SDS011;62581;47.342;7.908;2023-10-31T13:26:42;1.98;;;0.40;;
48835;SDS011;62581;47.342;7.908;2023-10-31T13:29:10;2.00;;;0.65;;
48835;SDS011;62581;47.342;7.908;2023-10-31T13:31:37;0.68;;;0.40;;
48835;SDS011;62581;47.342;7.908;2023-10-31T13:34:04;0.40;;;0.40;;
48835;SDS011;62581;47.342;7.908;2023-10-31T13:36:31;0.20;;;0.20;;
48835;SDS011;62581;47.342;7.908;2023-10-31T13:38:58;0.47;;;0.38;;
48835;SDS011;62581;47.342;7.908;2023-10-31T13:41:26;0.45;;;0.45;;
48835;SDS011;62581;47.342;7.908;2023-10-31T13:43:53;1.08;;;0.50;;
48835;SDS011;62581;47.342;7.908;2023-10-31T13:46:20;2.25;;;0.57;;
48835;SDS011;62581;47.342;7.908;2023-10-31T13:48:48;0.43;;;0.40;;
48835;SDS011;62581;47.342;7.908;2023-10-31T13:51:15;0.43;;;0.43;;
48835;SDS011;62581;47.342;7.908;2023-10-31T13:53:42;0.38;;;0.38;;
48835;SDS011;62581;47.342;7.908;2023-10-31T13:56:10;0.40;;;0.40;;
48835;SDS011;62581;47.342;7.908;2023-10-31T13:58:38;0.40;;;0.40;;
48835;SDS011;62581;47.342;7.908;2023-10-31T14:01:05;0.50;;;0.50;;
48835;SDS011;62581;47.342;7.908;2023-10-31T14:03:32;0.50;;;0.50;;
48835;SDS011;62581;47.342;7.908;2023-10-31T14:05:59;2.40;;;0.60;;
48835;SDS011;62581;47.342;7.908;2023-10-31T14:08:26;0.40;;;0.40;;
48835;SDS011;62581;47.342;7.908;2023-10-31T14:10:53;0.30;;;0.30;;
48835;SDS011;62581;47.342;7.908;2023-10-31T14:13:21;1.02;;;0.40;;
48835;SDS011;62581;47.342;7.908;2023-10-31T14:15:50;1.15;;;0.60;;
48835;SDS011;62581;47.342;7.908;2023-10-31T14:18:17;1.58;;;0.50;;
48835;SDS011;62581;47.342;7.908;2023-10-31T14:20:44;0.47;;;0.47;;
48835;SDS011;62581;47.342;7.908;2023-10-31T14:23:11;1.17;;;0.40;;
48835;SDS011;62581;47.342;7.908;2023-10-31T14:25:38;0.55;;;0.30;;
48835;SDS011;62581;47.342;7.908;2023-10-31T14:28:05;0.40;;;0.40;;
48835;SDS011;62581;47.342;7.908;2023-10-31T14:30:32;0.50;;;0.40;;
48835;SDS011;62581;47.342;7.908;2023-10-31T14:33:00;0.50;;;0.50;;
48835;SDS011;62581;47.342;7.908;2023-10-31T14:35:27;1.55;;;0.70;;
48835;SDS011;62581;47.342;7.908;2023-10-31T14:37:54;1.15;;;0.40;;
48835;SDS011;62581;47.342;7.908;2023-10-31T14:40:22;1.33;;;0.70;;
48835;SDS011;62581;47.342;7.908;2023-10-31T14:42:49;0.80;;;0.60;;
48835;SDS011;62581;47.342;7.908;2023-10-31T14:45:16;0.63;;;0.30;;
48835;SDS011;62581;47.342;7.908;2023-10-31T14:47:43;0.63;;;0.60;;
48835;SDS011;62581;47.342;7.908;2023-10-31T14:50:11;0.40;;;0.40;;
48835;SDS011;62581;47.342;7.908;2023-10-31T14:52:38;0.52;;;0.52;;
48835;SDS011;62581;47.342;7.908;2023-10-31T14:55:06;4.10;;;0.50;;
48835;SDS011;62581;47.342;7.908;2023-10-31T14:57:34;0.50;;;0.47;;
48835;SDS011;62581;47.342;7.908;2023-10-31T15:00:01;0.40;;;0.40;;